createdAt,value
2023-04-20T00:00:44.205Z,35.08
2023-04-20T00:03:12.756Z,35.03
2023-04-20T00:05:39.428Z,35.06
2023-04-20T00:08:06.164Z,34.79
2023-04-20T00:10:32.805Z,35.10
2023-04-20T00:12:59.305Z,35.36
2023-04-20T00:15:25.946Z,35.17
2023-04-20T00:17:53.623Z,35.27
2023-04-20T00:20:20.364Z,35.43
2023-04-20T00:22:46.896Z,35.05
2023-04-20T00:25:13.397Z,35.04
2023-04-20T00:27:40.060Z,35.02
2023-04-20T00:30:07.248Z,35.09
2023-04-20T00:32:33.763Z,35.22
2023-04-20T00:35:00.383Z,35.39
2023-04-20T00:37:26.956Z,35.21
2023-04-20T00:39:55.483Z,35.18
2023-04-20T00:42:22.004Z,34.75
2023-04-20T00:44:48.506Z,35.46
2023-04-20T00:47:15.099Z,35.18
2023-04-20T00:49:41.771Z,35.14
2023-04-20T00:52:08.962Z,35.12
2023-04-20T00:54:36.296Z,34.93
2023-04-20T00:57:03.906Z,34.90
2023-04-20T00:59:30.415Z,34.97
2023-04-20T01:01:58.006Z,35.17
2023-04-20T01:04:25.011Z,35.13
2023-04-20T01:06:51.590Z,35.08
2023-04-20T01:09:18.258Z,35.24
2023-04-20T01:11:44.999Z,35.00
2023-04-20T01:14:15.908Z,33.26
2023-04-20T01:16:42.645Z,34.53
2023-04-20T01:19:12.289Z,35.16
2023-04-20T01:21:38.901Z,35.31
2023-04-20T01:24:06.394Z,35.23
2023-04-20T01:26:32.871Z,35.19
2023-04-20T01:28:59.379Z,35.16
2023-04-20T01:31:25.983Z,35.03
2023-04-20T01:33:52.569Z,35.15
2023-04-20T01:36:20.751Z,35.18
2023-04-20T01:38:47.592Z,35.38
2023-04-20T01:41:14.643Z,35.53
2023-04-20T01:43:41.322Z,35.48
2023-04-20T01:46:07.882Z,35.58
2023-04-20T01:48:34.992Z,35.39
2023-04-20T01:51:01.538Z,35.17
2023-04-20T01:53:28.082Z,35.15
2023-04-20T01:55:54.851Z,35.32
2023-04-20T01:58:22.767Z,35.27
2023-04-20T02:00:49.426Z,35.41
2023-04-20T02:03:16.473Z,34.91
2023-04-20T02:05:43.117Z,35.23
2023-04-20T02:08:09.705Z,35.21
2023-04-20T02:10:39.177Z,34.96
2023-04-20T02:13:05.682Z,35.52
2023-04-20T02:15:32.284Z,35.12
2023-04-20T02:17:58.902Z,34.98
2023-04-20T02:20:25.537Z,35.07
2023-04-20T02:22:52.060Z,34.97
2023-04-20T02:25:18.602Z,34.87
2023-04-20T02:27:45.124Z,34.65
2023-04-20T02:30:12.482Z,34.90
2023-04-20T02:32:41.291Z,35.08
2023-04-20T02:35:08.824Z,35.04
2023-04-20T02:37:35.337Z,34.84
2023-04-20T02:40:01.879Z,34.86
2023-04-20T02:42:29.193Z,34.95
2023-04-20T02:44:57.467Z,35.20
2023-04-20T02:47:24.505Z,35.13
2023-04-20T02:49:52.954Z,35.04
2023-04-20T02:52:19.574Z,34.82
2023-04-20T02:54:46.345Z,34.90
2023-04-20T02:57:13.378Z,35.04
2023-04-20T02:59:40.031Z,34.80
2023-04-20T03:02:16.055Z,34.80
2023-04-20T03:04:42.876Z,34.87
2023-04-20T03:07:17.801Z,34.77
2023-04-20T03:09:44.926Z,34.78
2023-04-20T03:12:31.816Z,34.65
2023-04-20T03:15:15.584Z,34.69
2023-04-20T03:17:52.468Z,34.11
2023-04-20T03:20:19.000Z,34.39
2023-04-20T03:22:45.711Z,34.40
2023-04-20T03:25:12.437Z,34.32
2023-04-20T03:27:52.993Z,34.30
2023-04-20T03:30:19.860Z,34.33
2023-04-20T03:32:51.407Z,34.32
2023-04-20T03:35:18.209Z,34.40
2023-04-20T03:37:44.815Z,34.30
2023-04-20T03:40:11.790Z,34.57
2023-04-20T03:42:38.334Z,34.58
2023-04-20T03:45:06.388Z,34.46
2023-04-20T03:47:33.274Z,34.57
2023-04-20T03:49:59.851Z,34.51
2023-04-20T03:52:26.409Z,34.33
2023-04-20T03:54:53.278Z,33.94
2023-04-20T03:57:19.836Z,34.18
2023-04-20T03:59:46.805Z,34.06
2023-04-20T04:02:17.601Z,34.29
2023-04-20T04:04:46.454Z,34.21
2023-04-20T04:07:13.053Z,34.07
2023-04-20T04:09:41.401Z,34.10
2023-04-20T04:12:08.664Z,34.11
2023-04-20T04:14:35.199Z,33.98
2023-04-20T04:17:02.226Z,34.36
2023-04-20T04:19:30.226Z,33.96
2023-04-20T04:21:56.784Z,34.18
2023-04-20T04:24:23.330Z,34.26
2023-04-20T04:26:59.426Z,33.98
2023-04-20T04:29:27.601Z,33.64
2023-04-20T04:34:37.638Z,33.92
2023-04-20T04:37:04.602Z,33.89
2023-04-20T04:39:45.569Z,33.65
2023-04-20T04:42:18.688Z,33.69
2023-04-20T04:44:46.149Z,33.88
2023-04-20T04:47:17.951Z,34.14
2023-04-20T04:49:45.551Z,33.85
2023-04-20T04:52:13.308Z,34.11
2023-04-20T04:54:39.779Z,33.93
2023-04-20T04:57:06.793Z,33.92
2023-04-20T04:59:33.363Z,34.25
2023-04-20T05:01:59.967Z,34.07
2023-04-20T05:04:26.675Z,34.04
2023-04-20T05:06:53.249Z,33.80
2023-04-20T05:09:20.146Z,34.01
2023-04-20T05:11:46.862Z,33.77
2023-04-20T05:14:13.439Z,33.74
2023-04-20T05:16:40.019Z,33.77
2023-04-20T05:19:06.569Z,33.65
2023-04-20T05:21:33.124Z,33.58
2023-04-20T05:23:59.705Z,33.72
2023-04-20T05:26:26.201Z,33.41
2023-04-20T05:28:52.692Z,33.45
2023-04-20T05:31:20.141Z,33.33
2023-04-20T05:33:46.713Z,33.17
2023-04-20T05:36:13.241Z,33.17
2023-04-20T05:38:39.801Z,33.09
2023-04-20T05:41:06.590Z,33.38
2023-04-20T05:43:33.088Z,33.77
2023-04-20T05:45:59.619Z,33.36
2023-04-20T05:48:29.877Z,33.68
2023-04-20T05:50:56.917Z,33.14
2023-04-20T05:53:23.429Z,33.22
2023-04-20T05:55:50.037Z,33.24
2023-04-20T05:58:17.064Z,32.96
2023-04-20T06:00:44.381Z,33.10
2023-04-20T06:03:11.157Z,32.89
2023-04-20T06:05:38.040Z,33.06
2023-04-20T06:08:04.814Z,32.74
2023-04-20T06:10:34.325Z,32.53
2023-04-20T06:13:01.004Z,32.86
2023-04-20T06:15:27.458Z,32.52
2023-04-20T06:17:54.044Z,32.60
2023-04-20T06:20:20.670Z,32.34
2023-04-20T06:22:47.310Z,32.43
2023-04-20T06:25:15.204Z,32.63
2023-04-20T06:27:42.256Z,32.53
2023-04-20T06:30:09.869Z,32.23
2023-04-20T06:32:36.623Z,32.24
2023-04-20T06:35:04.264Z,32.30
2023-04-20T06:37:30.784Z,32.40
2023-04-20T06:39:57.385Z,32.30
2023-04-20T06:42:23.896Z,32.39
2023-04-20T06:44:50.897Z,32.18
2023-04-20T06:47:17.435Z,32.17
2023-04-20T06:49:43.964Z,32.08
2023-04-20T06:52:10.478Z,31.96
2023-04-20T06:54:36.968Z,32.08
2023-04-20T06:57:03.457Z,32.36
2023-04-20T06:59:29.945Z,32.13
2023-04-20T07:01:56.498Z,32.00
2023-04-20T07:04:23.171Z,32.10
2023-04-20T07:06:53.828Z,32.12
2023-04-20T07:09:20.930Z,31.83
2023-04-20T07:11:47.431Z,31.91
2023-04-20T07:14:14.035Z,31.69
2023-04-20T07:16:40.587Z,31.83
2023-04-20T07:19:07.217Z,31.69
2023-04-20T07:21:33.980Z,31.84
2023-04-20T07:24:00.519Z,31.92
2023-04-20T07:26:27.030Z,31.65
2023-04-20T07:28:53.535Z,31.57
2023-04-20T07:31:20.201Z,31.31
2023-04-20T07:33:46.750Z,31.29
2023-04-20T07:36:13.246Z,31.41
2023-04-20T07:38:39.848Z,31.59
2023-04-20T07:41:10.011Z,31.25
2023-04-20T07:43:36.793Z,31.19
2023-04-20T07:46:03.446Z,30.73
2023-04-20T07:48:30.049Z,31.16
2023-04-20T07:50:56.630Z,30.71
2023-04-20T07:53:23.139Z,30.79
2023-04-20T07:55:51.027Z,30.75
2023-04-20T07:58:17.710Z,30.82
2023-04-20T08:00:46.401Z,30.89
2023-04-20T08:03:13.590Z,30.89
2023-04-20T08:05:40.990Z,30.93
2023-04-20T08:08:07.706Z,30.62
2023-04-20T08:10:35.177Z,30.60
2023-04-20T08:13:01.740Z,30.22
2023-04-20T08:15:28.323Z,30.10
2023-04-20T08:17:54.953Z,30.30
2023-04-20T08:20:21.464Z,30.04
2023-04-20T08:22:49.311Z,29.75
2023-04-20T08:25:15.931Z,28.60
2023-04-20T08:27:42.437Z,27.93
2023-04-20T08:30:09.454Z,27.06
2023-04-20T08:32:36.319Z,26.83
2023-04-20T08:35:04.212Z,26.82
2023-04-20T08:37:32.678Z,27.49
2023-04-20T08:39:59.671Z,27.73
2023-04-20T08:42:26.289Z,27.06
2023-04-20T08:44:53.027Z,27.44
2023-04-20T08:47:20.638Z,27.18
2023-04-20T08:49:48.407Z,27.50
2023-04-20T08:52:15.022Z,27.39
2023-04-20T08:54:55.267Z,27.75
2023-04-20T08:57:22.966Z,27.59
2023-04-20T08:59:49.484Z,27.78
2023-04-20T09:02:16.246Z,28.10
2023-04-20T09:04:42.914Z,28.41
2023-04-20T09:07:21.969Z,28.55
2023-04-20T09:09:56.163Z,28.97
2023-04-20T09:12:23.165Z,29.29
2023-04-20T09:14:49.690Z,29.50
2023-04-20T09:17:17.907Z,29.80
2023-04-20T09:19:45.223Z,29.93
2023-04-20T09:22:12.055Z,30.27
2023-04-20T09:24:39.860Z,30.08
2023-04-20T09:27:16.742Z,30.10
2023-04-20T09:29:43.326Z,30.59
2023-04-20T09:32:22.131Z,30.38
2023-04-20T09:34:48.786Z,30.63
2023-04-20T09:37:16.566Z,31.06
2023-04-20T09:39:46.481Z,31.02
2023-04-20T09:42:14.190Z,31.09
2023-04-20T09:44:40.674Z,31.22
2023-04-20T09:47:08.564Z,31.73
2023-04-20T09:49:35.628Z,31.46
2023-04-20T09:52:03.614Z,31.37
2023-04-20T09:54:30.594Z,31.46
2023-04-20T09:57:01.690Z,31.49
2023-04-20T09:59:28.629Z,29.41
2023-04-20T10:01:55.409Z,31.17
2023-04-20T10:04:22.139Z,31.55
2023-04-20T10:06:57.908Z,31.46
2023-04-20T10:09:26.288Z,31.09
2023-04-20T10:11:55.144Z,30.70
2023-04-20T10:14:26.142Z,30.79
2023-04-20T10:17:00.111Z,30.44
2023-04-20T10:19:56.210Z,29.44
2023-04-20T10:22:32.981Z,29.49
2023-04-20T10:25:00.865Z,29.55
2023-04-20T10:27:27.682Z,29.92
2023-04-20T10:29:54.386Z,29.71
2023-04-20T10:32:28.203Z,29.33
2023-04-20T10:35:02.815Z,29.04
2023-04-20T10:37:29.679Z,29.17
2023-04-20T10:39:56.300Z,29.79
2023-04-20T10:42:22.900Z,29.65
2023-04-20T10:44:49.476Z,28.57
2023-04-20T10:47:17.013Z,29.37
2023-04-20T10:49:43.477Z,28.70
2023-04-20T10:52:10.026Z,28.34
2023-04-20T10:54:37.982Z,27.89
2023-04-20T10:57:05.324Z,27.31
2023-04-20T10:59:31.819Z,26.89
2023-04-20T11:02:01.355Z,26.25
2023-04-20T11:04:36.905Z,25.88
2023-04-20T11:07:13.027Z,25.64
2023-04-20T11:09:39.838Z,25.33
2023-04-20T11:12:12.202Z,25.91
2023-04-20T11:14:53.822Z,25.51
2023-04-20T11:17:20.745Z,25.53
2023-04-20T11:19:47.659Z,25.47
2023-04-20T11:22:21.352Z,25.58
2023-04-20T11:24:47.869Z,25.73
2023-04-20T11:27:22.132Z,26.13
2023-04-20T11:29:57.322Z,25.94
2023-04-20T11:32:24.494Z,25.94
2023-04-20T11:35:07.849Z,25.50
2023-04-20T11:37:46.776Z,26.01
2023-04-20T11:40:13.678Z,26.01
2023-04-20T11:42:40.319Z,26.59
2023-04-20T11:45:07.398Z,26.73
2023-04-20T11:47:33.938Z,27.23
2023-04-20T11:50:00.445Z,27.01
2023-04-20T11:52:27.373Z,26.69
2023-04-20T11:54:53.853Z,27.52
2023-04-20T11:57:23.661Z,27.11
2023-04-20T11:59:50.292Z,27.73
2023-04-20T12:02:16.897Z,27.92
2023-04-20T12:04:43.624Z,27.71
2023-04-20T12:07:10.767Z,27.47
2023-04-20T12:09:38.387Z,27.85
2023-04-20T12:12:05.379Z,27.43
2023-04-20T12:14:33.722Z,26.54
2023-04-20T12:17:01.436Z,26.64
2023-04-20T12:19:28.152Z,25.71
2023-04-20T12:21:55.718Z,26.19
2023-04-20T12:24:22.558Z,27.33
2023-04-20T12:26:49.157Z,26.43
2023-04-20T12:29:16.620Z,25.56
2023-04-20T12:31:43.396Z,25.19
2023-04-20T12:34:09.925Z,25.38
2023-04-20T12:36:36.722Z,25.77
2023-04-20T12:39:03.736Z,25.48
2023-04-20T12:41:30.393Z,25.41
2023-04-20T12:43:56.978Z,25.45
2023-04-20T12:46:23.520Z,25.82
2023-04-20T12:48:50.150Z,25.67
2023-04-20T12:51:16.755Z,25.37
2023-04-20T12:53:43.274Z,24.13
2023-04-20T12:56:09.837Z,23.67
2023-04-20T12:58:36.531Z,23.75
2023-04-20T13:01:03.557Z,23.57
2023-04-20T13:03:30.390Z,23.82
2023-04-20T13:05:57.043Z,24.21
2023-04-20T13:08:23.742Z,24.08
2023-04-20T13:10:50.253Z,23.22
2023-04-20T13:13:16.879Z,23.07
2023-04-20T13:15:43.457Z,22.11
2023-04-20T13:18:10.145Z,21.73
2023-04-20T13:20:36.857Z,21.29
2023-04-20T13:23:04.276Z,20.44
2023-04-20T13:25:35.173Z,20.65
2023-04-20T13:28:02.435Z,19.65
2023-04-20T13:30:28.995Z,20.84
2023-04-20T13:32:55.729Z,21.08
2023-04-20T13:35:22.360Z,20.85
2023-04-20T13:37:49.001Z,21.69
2023-04-20T13:40:15.601Z,21.62
2023-04-20T13:42:42.502Z,21.58
2023-04-20T13:45:10.291Z,22.30
2023-04-20T13:47:38.171Z,21.17
2023-04-20T13:50:05.834Z,21.07
2023-04-20T13:52:32.422Z,21.82
2023-04-20T13:54:58.960Z,21.64
2023-04-20T13:57:25.619Z,21.79
2023-04-20T13:59:53.046Z,21.51
2023-04-20T14:02:19.654Z,20.94
2023-04-20T14:04:46.361Z,20.49
2023-04-20T14:07:12.930Z,20.30
2023-04-20T14:09:39.429Z,20.63
2023-04-20T14:12:05.991Z,20.05
2023-04-20T14:14:32.564Z,20.21
2023-04-20T14:16:59.062Z,20.10
2023-04-20T14:19:25.644Z,20.21
2023-04-20T14:21:52.309Z,19.72
2023-04-20T14:24:18.993Z,19.83
2023-04-20T14:26:45.806Z,20.02
2023-04-20T14:29:12.303Z,20.95
2023-04-20T14:31:38.898Z,21.05
2023-04-20T14:34:05.551Z,20.73
2023-04-20T14:36:32.514Z,21.29
2023-04-20T14:38:58.988Z,21.53
2023-04-20T14:41:25.604Z,21.86
2023-04-20T14:43:52.097Z,22.23
2023-04-20T14:46:19.048Z,22.33
2023-04-20T14:48:46.496Z,22.31
2023-04-20T14:51:13.574Z,22.75
2023-04-20T14:53:40.222Z,22.67
2023-04-20T14:56:06.795Z,22.52
2023-04-20T14:58:33.378Z,22.36
2023-04-20T15:00:59.876Z,22.92
2023-04-20T15:03:26.691Z,23.00
2023-04-20T15:05:53.693Z,23.05
2023-04-20T15:08:20.264Z,22.64
2023-04-20T15:10:46.778Z,23.23
2023-04-20T15:13:13.490Z,23.23
2023-04-20T15:15:48.161Z,23.35
2023-04-20T15:18:16.842Z,23.61
2023-04-20T15:20:43.783Z,23.29
2023-04-20T15:23:10.417Z,23.73
2023-04-20T15:25:36.905Z,23.38
2023-04-20T15:28:03.434Z,23.21
2023-04-20T15:30:30.516Z,22.95
2023-04-20T15:33:04.620Z,22.84
2023-04-20T15:35:32.371Z,22.95
2023-04-20T15:37:59.041Z,23.02
2023-04-20T15:40:27.262Z,22.95
2023-04-20T15:42:55.813Z,23.28
2023-04-20T15:45:23.061Z,23.55
2023-04-20T15:47:49.858Z,23.41
2023-04-20T15:50:16.699Z,23.49
2023-04-20T15:52:43.799Z,23.53
2023-04-20T15:55:10.986Z,23.17
2023-04-20T15:57:37.497Z,23.08
2023-04-20T16:00:04.469Z,22.87
2023-04-20T16:02:37.024Z,22.89
2023-04-20T16:05:04.301Z,23.23
2023-04-20T16:07:30.923Z,23.01
2023-04-20T16:09:57.428Z,22.71
2023-04-20T16:12:24.063Z,22.90
2023-04-20T16:14:53.195Z,23.00
2023-04-20T16:17:20.315Z,23.24
2023-04-20T16:19:46.838Z,23.09
2023-04-20T16:22:14.163Z,23.31
2023-04-20T16:24:40.740Z,23.21
2023-04-20T16:27:07.308Z,23.37
2023-04-20T16:29:33.832Z,23.44
2023-04-20T16:32:00.575Z,23.19
2023-04-20T16:34:27.175Z,23.61
2023-04-20T16:36:53.764Z,23.65
2023-04-20T16:39:20.304Z,23.86
2023-04-20T16:41:46.873Z,23.90
2023-04-20T16:44:14.441Z,23.95
2023-04-20T16:46:41.923Z,24.06
2023-04-20T16:49:09.154Z,24.10
2023-04-20T16:51:35.846Z,24.35
2023-04-20T16:54:02.374Z,24.20
2023-04-20T16:56:28.953Z,24.44
2023-04-20T16:58:55.632Z,24.52
2023-04-20T17:01:22.425Z,24.62
2023-04-20T17:03:49.249Z,24.96
2023-04-20T17:06:15.937Z,24.64
2023-04-20T17:08:42.429Z,24.56
2023-04-20T17:11:08.952Z,24.67
2023-04-20T17:13:35.471Z,24.74
2023-04-20T17:16:02.004Z,24.92
2023-04-20T17:18:28.522Z,24.89
2023-04-20T17:20:57.235Z,25.03
2023-04-20T17:23:23.819Z,25.11
2023-04-20T17:25:51.278Z,25.12
2023-04-20T17:28:17.873Z,25.09
2023-04-20T17:30:44.543Z,25.14
2023-04-20T17:33:14.443Z,24.83
2023-04-20T17:35:41.224Z,24.97
2023-04-20T17:38:07.851Z,24.95
2023-04-20T17:40:34.732Z,24.77
2023-04-20T17:43:01.900Z,24.59
2023-04-20T17:45:28.535Z,24.68
2023-04-20T17:47:55.077Z,24.51
2023-04-20T17:50:22.648Z,24.64
2023-04-20T17:52:49.133Z,25.11
2023-04-20T17:55:15.627Z,25.04
2023-04-20T17:57:42.169Z,25.20
2023-04-20T18:00:11.562Z,25.20
2023-04-20T18:02:52.506Z,25.19
2023-04-20T18:05:19.251Z,25.14
2023-04-20T18:07:45.733Z,25.35
2023-04-20T18:10:15.786Z,25.50
2023-04-20T18:12:42.844Z,25.53
2023-04-20T18:15:09.665Z,25.68
2023-04-20T18:17:36.225Z,25.72
2023-04-20T18:20:05.583Z,25.92
2023-04-20T18:22:32.753Z,25.88
2023-04-20T18:24:59.262Z,25.96
2023-04-20T18:27:26.300Z,26.37
2023-04-20T18:29:53.638Z,26.21
2023-04-20T18:32:20.916Z,26.55
2023-04-20T18:34:47.755Z,26.59
2023-04-20T18:37:15.040Z,26.62
2023-04-20T18:39:41.679Z,26.83
2023-04-20T18:42:08.201Z,26.95
2023-04-20T18:44:35.086Z,26.99
2023-04-20T18:47:01.857Z,27.11
2023-04-20T18:49:30.001Z,27.38
2023-04-20T18:51:56.574Z,27.17
2023-04-20T18:54:23.175Z,27.58
2023-04-20T18:56:50.397Z,27.32
2023-04-20T18:59:16.994Z,27.49
2023-04-20T19:01:43.612Z,27.65
2023-04-20T19:04:10.403Z,27.64
2023-04-20T19:06:36.975Z,27.44
2023-04-20T19:09:04.174Z,27.55
2023-04-20T19:11:32.050Z,27.34
2023-04-20T19:13:58.570Z,27.23
2023-04-20T19:16:25.119Z,27.69
2023-04-20T19:18:51.987Z,27.55
2023-04-20T19:21:20.268Z,27.71
2023-04-20T19:23:48.133Z,27.66
2023-04-20T19:26:15.650Z,28.05
2023-04-20T19:28:42.202Z,27.98
2023-04-20T19:31:10.921Z,28.21
2023-04-20T19:33:38.038Z,28.40
2023-04-20T19:36:06.283Z,28.11
2023-04-20T19:38:34.601Z,28.12
2023-04-20T19:41:01.411Z,28.01
2023-04-20T19:43:28.110Z,27.87
2023-04-20T19:45:58.128Z,28.09
2023-04-20T19:48:25.552Z,28.21
2023-04-20T19:50:52.126Z,28.15
2023-04-20T19:53:19.253Z,27.79
2023-04-20T19:55:45.853Z,28.19
2023-04-20T19:58:13.365Z,28.13
2023-04-20T20:00:40.159Z,28.11
2023-04-20T20:03:10.372Z,28.14
2023-04-20T20:05:36.993Z,27.97
2023-04-20T20:08:04.362Z,28.00
2023-04-20T20:10:30.879Z,28.19
2023-04-20T20:12:57.394Z,28.16
2023-04-20T20:15:23.952Z,27.97
2023-04-20T20:17:50.940Z,28.08
2023-04-20T20:20:17.482Z,28.18
2023-04-20T20:22:48.210Z,27.95
2023-04-20T20:25:16.152Z,28.21
2023-04-20T20:27:42.649Z,28.38
2023-04-20T20:30:09.813Z,28.46
2023-04-20T20:32:36.308Z,28.28
2023-04-20T20:35:04.642Z,28.47
2023-04-20T20:37:34.613Z,28.29
2023-04-20T20:40:07.033Z,28.24
2023-04-20T20:42:34.063Z,28.42
2023-04-20T20:45:01.073Z,28.72
2023-04-20T20:47:27.651Z,28.60
2023-04-20T20:49:54.178Z,28.37
2023-04-20T20:52:21.171Z,28.83
2023-04-20T20:54:48.266Z,28.88
2023-04-20T20:57:14.932Z,29.03
2023-04-20T20:59:41.467Z,28.78
2023-04-20T21:02:08.144Z,28.76
2023-04-20T21:04:34.750Z,28.57
2023-04-20T21:07:01.277Z,28.53
2023-04-20T21:09:27.793Z,28.81
2023-04-20T21:11:56.614Z,28.75
2023-04-20T21:14:23.235Z,28.60
2023-04-20T21:16:49.881Z,28.74
2023-04-20T21:19:16.611Z,28.75
2023-04-20T21:21:43.461Z,28.79
2023-04-20T21:24:09.920Z,28.87
2023-04-20T21:26:36.419Z,29.03
2023-04-20T21:29:03.623Z,28.89
2023-04-20T21:31:30.870Z,28.96
2023-04-20T21:33:57.908Z,29.02
2023-04-20T21:36:24.403Z,29.07
2023-04-20T21:38:50.952Z,28.68
2023-04-20T21:41:17.475Z,28.75
2023-04-20T21:43:44.007Z,28.99
2023-04-20T21:46:14.417Z,28.85
2023-04-20T21:48:41.302Z,28.76
2023-04-20T21:51:07.845Z,28.84
2023-04-20T21:53:34.421Z,28.96
2023-04-20T21:56:00.945Z,29.02
2023-04-20T21:58:27.432Z,28.98
2023-04-20T22:00:53.999Z,29.04
2023-04-20T22:03:20.706Z,29.10
2023-04-20T22:05:47.438Z,28.88
2023-04-20T22:08:15.241Z,28.84
2023-04-20T22:10:42.093Z,29.31
2023-04-20T22:13:08.575Z,29.06
2023-04-20T22:15:35.080Z,28.96
2023-04-20T22:18:03.973Z,28.71
2023-04-20T22:20:31.528Z,28.91
2023-04-20T22:23:00.973Z,29.08
2023-04-20T22:25:27.451Z,29.20
2023-04-20T22:27:53.917Z,29.08
2023-04-20T22:30:20.692Z,29.16
2023-04-20T22:32:47.457Z,29.56
2023-04-20T22:35:14.046Z,29.23
2023-04-20T22:37:40.910Z,29.03
2023-04-20T22:40:08.238Z,29.34
2023-04-20T22:42:36.108Z,29.13
2023-04-20T22:45:03.665Z,29.20
2023-04-20T22:47:30.296Z,29.24
2023-04-20T22:49:56.999Z,29.27
2023-04-20T22:52:23.528Z,29.11
2023-04-20T22:54:50.016Z,29.08
2023-04-20T22:57:18.134Z,29.30
2023-04-20T22:59:44.745Z,29.12
2023-04-20T23:02:11.320Z,29.11
2023-04-20T23:04:37.967Z,29.09
2023-04-20T23:07:08.027Z,29.23
2023-04-20T23:09:37.982Z,29.03
2023-04-20T23:12:04.700Z,29.04
2023-04-20T23:14:32.044Z,28.97
2023-04-20T23:17:00.002Z,29.06
2023-04-20T23:19:26.537Z,29.06
2023-04-20T23:21:53.031Z,29.06
2023-04-20T23:24:19.528Z,29.28
2023-04-20T23:26:46.057Z,29.33
2023-04-20T23:29:12.596Z,29.28
2023-04-20T23:31:39.204Z,29.35
2023-04-20T23:34:06.033Z,29.25
2023-04-20T23:36:32.888Z,29.15
2023-04-20T23:38:59.365Z,29.28
2023-04-20T23:41:25.977Z,29.48
2023-04-20T23:43:52.465Z,29.27
2023-04-20T23:46:19.163Z,29.16
2023-04-20T23:48:45.760Z,29.39
2023-04-20T23:51:12.277Z,29.39
2023-04-20T23:53:39.329Z,29.23
2023-04-20T23:56:06.495Z,29.36
2023-04-20T23:58:32.972Z,29.23
